sensor_id;sensor_type;location;lat;lon;timestamp;pressure;altitude;pressure_sealevel;temperature
28305;BMP280;15569;42.652;23.040;2023-03-04T00:02:04;92933.19;;;10.03
28305;BMP280;15569;42.652;23.040;2023-03-04T00:04:30;92942.47;;;9.98
28305;BMP280;15569;42.652;23.040;2023-03-04T00:06:55;92939.75;;;9.98
28305;BMP280;15569;42.652;23.040;2023-03-04T00:09:21;92932.81;;;10.09
28305;BMP280;15569;42.652;23.040;2023-03-04T00:11:46;92928.47;;;9.90
28305;BMP280;15569;42.652;23.040;2023-03-04T00:14:12;92921.84;;;10.07
28305;BMP280;15569;42.652;23.040;2023-03-04T00:16:37;92930.09;;;10.09
28305;BMP280;15569;42.652;23.040;2023-03-04T00:19:03;92925.38;;;10.09
28305;BMP280;15569;42.652;23.040;2023-03-04T00:21:29;92917.91;;;9.96
28305;BMP280;15569;42.652;23.040;2023-03-04T00:23:55;92923.28;;;10.08
28305;BMP280;15569;42.652;23.040;2023-03-04T00:26:20;92918.53;;;10.08
28305;BMP280;15569;42.652;23.040;2023-03-04T00:28:45;92926.09;;;10.10
28305;BMP280;15569;42.652;23.040;2023-03-04T00:31:11;92918.97;;;10.16
28305;BMP280;15569;42.652;23.040;2023-03-04T00:33:37;92916.97;;;10.17
28305;BMP280;15569;42.652;23.040;2023-03-04T00:36:03;92907.69;;;10.22
28305;BMP280;15569;42.652;23.040;2023-03-04T00:38:28;92908.81;;;10.30
28305;BMP280;15569;42.652;23.040;2023-03-04T00:40:54;92906.50;;;10.25
28305;BMP280;15569;42.652;23.040;2023-03-04T00:43:19;92903.06;;;10.11
28305;BMP280;15569;42.652;23.040;2023-03-04T00:45:45;92901.34;;;10.17
28305;BMP280;15569;42.652;23.040;2023-03-04T00:48:11;92913.88;;;9.97
28305;BMP280;15569;42.652;23.040;2023-03-04T00:50:37;92901.56;;;10.08
28305;BMP280;15569;42.652;23.040;2023-03-04T00:53:02;92901.47;;;10.19
28305;BMP280;15569;42.652;23.040;2023-03-04T00:55:28;92898.13;;;10.07
28305;BMP280;15569;42.652;23.040;2023-03-04T00:57:54;92904.00;;;9.77
28305;BMP280;15569;42.652;23.040;2023-03-04T01:00:20;92880.81;;;9.62
28305;BMP280;15569;42.652;23.040;2023-03-04T01:02:45;92897.97;;;9.78
28305;BMP280;15569;42.652;23.040;2023-03-04T01:05:11;92897.88;;;9.76
28305;BMP280;15569;42.652;23.040;2023-03-04T01:07:37;92890.84;;;9.85
28305;BMP280;15569;42.652;23.040;2023-03-04T01:10:03;92904.31;;;9.83
28305;BMP280;15569;42.652;23.040;2023-03-04T01:12:29;92897.94;;;9.65
28305;BMP280;15569;42.652;23.040;2023-03-04T01:14:54;92891.91;;;9.66
28305;BMP280;15569;42.652;23.040;2023-03-04T01:17:20;92901.91;;;9.75
28305;BMP280;15569;42.652;23.040;2023-03-04T01:19:45;92903.81;;;9.61
28305;BMP280;15569;42.652;23.040;2023-03-04T01:22:11;92889.94;;;9.80
28305;BMP280;15569;42.652;23.040;2023-03-04T01:24:38;92892.94;;;9.86
28305;BMP280;15569;42.652;23.040;2023-03-04T01:27:03;92885.00;;;9.77
28305;BMP280;15569;42.652;23.040;2023-03-04T01:29:28;92884.34;;;9.65
28305;BMP280;15569;42.652;23.040;2023-03-04T01:31:54;92883.44;;;9.60
28305;BMP280;15569;42.652;23.040;2023-03-04T01:34:19;92880.94;;;9.64
28305;BMP280;15569;42.652;23.040;2023-03-04T01:36:45;92872.44;;;9.83
28305;BMP280;15569;42.652;23.040;2023-03-04T01:39:10;92873.94;;;9.86
28305;BMP280;15569;42.652;23.040;2023-03-04T01:41:35;92878.00;;;9.99
28305;BMP280;15569;42.652;23.040;2023-03-04T01:44:01;92875.50;;;10.03
28305;BMP280;15569;42.652;23.040;2023-03-04T01:46:28;92860.28;;;9.98
28305;BMP280;15569;42.652;23.040;2023-03-04T01:48:54;92848.78;;;9.72
28305;BMP280;15569;42.652;23.040;2023-03-04T01:51:19;92860.22;;;10.09
28305;BMP280;15569;42.652;23.040;2023-03-04T01:53:47;92865.34;;;10.17
28305;BMP280;15569;42.652;23.040;2023-03-04T01:56:27;92870.25;;;9.93
28305;BMP280;15569;42.652;23.040;2023-03-04T01:59:13;92872.44;;;9.83
28305;BMP280;15569;42.652;23.040;2023-03-04T02:01:40;92863.72;;;9.98
28305;BMP280;15569;42.652;23.040;2023-03-04T02:04:07;92869.97;;;10.01
28305;BMP280;15569;42.652;23.040;2023-03-04T02:06:35;92857.09;;;10.01
28305;BMP280;15569;42.652;23.040;2023-03-04T02:09:02;92857.16;;;9.90
28305;BMP280;15569;42.652;23.040;2023-03-04T02:11:28;92856.97;;;9.99
28305;BMP280;15569;42.652;23.040;2023-03-04T02:13:53;92847.41;;;9.85
28305;BMP280;15569;42.652;23.040;2023-03-04T02:16:18;92848.94;;;10.01
28305;BMP280;15569;42.652;23.040;2023-03-04T02:18:44;92852.84;;;9.98
28305;BMP280;15569;42.652;23.040;2023-03-04T02:21:28;92851.72;;;10.03
28305;BMP280;15569;42.652;23.040;2023-03-04T02:26:28;92854.44;;;9.76
28305;BMP280;15569;42.652;23.040;2023-03-04T02:28:55;92852.72;;;9.96
28305;BMP280;15569;42.652;23.040;2023-03-04T02:33:53;92847.38;;;9.71
28305;BMP280;15569;42.652;23.040;2023-03-04T02:36:19;92848.91;;;9.88
28305;BMP280;15569;42.652;23.040;2023-03-04T02:38:44;92840.34;;;9.80
28305;BMP280;15569;42.652;23.040;2023-03-04T02:41:14;92840.75;;;9.74
28305;BMP280;15569;42.652;23.040;2023-03-04T02:43:42;92845.66;;;9.64
28305;BMP280;15569;42.652;23.040;2023-03-04T02:46:10;92837.97;;;9.61
28305;BMP280;15569;42.652;23.040;2023-03-04T02:48:36;92834.31;;;9.68
28305;BMP280;15569;42.652;23.040;2023-03-04T02:51:02;92834.72;;;9.76
28305;BMP280;15569;42.652;23.040;2023-03-04T02:53:27;92843.94;;;9.57
28305;BMP280;15569;42.652;23.040;2023-03-04T02:55:53;92846.13;;;9.61
28305;BMP280;15569;42.652;23.040;2023-03-04T02:58:18;92837.91;;;9.59
28305;BMP280;15569;42.652;23.040;2023-03-04T03:25:08;92835.00;;;9.54
28305;BMP280;15569;42.652;23.040;2023-03-04T03:27:34;92827.41;;;9.39
28305;BMP280;15569;42.652;23.040;2023-03-04T03:29:59;92830.16;;;9.53
28305;BMP280;15569;42.652;23.040;2023-03-04T03:32:25;92837.75;;;9.43
28305;BMP280;15569;42.652;23.040;2023-03-04T03:34:51;92830.72;;;9.38
28305;BMP280;15569;42.652;23.040;2023-03-04T03:37:16;92824.16;;;9.29
28305;BMP280;15569;42.652;23.040;2023-03-04T03:39:42;92826.13;;;9.15
28305;BMP280;15569;42.652;23.040;2023-03-04T03:42:07;92815.16;;;9.13
28305;BMP280;15569;42.652;23.040;2023-03-04T03:44:32;92826.78;;;9.27
28305;BMP280;15569;42.652;23.040;2023-03-04T03:46:58;92811.31;;;9.05
28305;BMP280;15569;42.652;23.040;2023-03-04T03:49:23;92813.59;;;9.22
28305;BMP280;15569;42.652;23.040;2023-03-04T03:51:49;92804.41;;;9.15
28305;BMP280;15569;42.652;23.040;2023-03-04T03:54:14;92808.69;;;9.32
28305;BMP280;15569;42.652;23.040;2023-03-04T03:56:39;92801.28;;;9.32
28305;BMP280;15569;42.652;23.040;2023-03-04T03:59:05;92812.34;;;9.36
28305;BMP280;15569;42.652;23.040;2023-03-04T04:01:30;92811.50;;;9.34
28305;BMP280;15569;42.652;23.040;2023-03-04T04:03:58;92807.19;;;9.29
28305;BMP280;15569;42.652;23.040;2023-03-04T04:06:23;92786.00;;;9.00
28305;BMP280;15569;42.652;23.040;2023-03-04T04:08:48;92804.22;;;9.11
28305;BMP280;15569;42.652;23.040;2023-03-04T04:11:14;92797.75;;;9.05
28305;BMP280;15569;42.652;23.040;2023-03-04T04:13:39;92806.09;;;9.09
28305;BMP280;15569;42.652;23.040;2023-03-04T04:16:05;92810.56;;;8.91
28305;BMP280;15569;42.652;23.040;2023-03-04T04:18:30;92819.44;;;8.79
28305;BMP280;15569;42.652;23.040;2023-03-04T04:20:56;92805.03;;;8.89
28305;BMP280;15569;42.652;23.040;2023-03-04T04:23:21;92808.38;;;8.75
28305;BMP280;15569;42.652;23.040;2023-03-04T04:25:47;92807.06;;;8.76
28305;BMP280;15569;42.652;23.040;2023-03-04T04:28:12;92810.47;;;8.77
28305;BMP280;15569;42.652;23.040;2023-03-04T04:30:38;92806.94;;;8.74
28305;BMP280;15569;42.652;23.040;2023-03-04T04:33:03;92805.34;;;8.58
28305;BMP280;15569;42.652;23.040;2023-03-04T04:35:31;92803.03;;;8.52
28305;BMP280;15569;42.652;23.040;2023-03-04T04:37:57;92809.97;;;8.55
28305;BMP280;15569;42.652;23.040;2023-03-04T04:40:22;92804.44;;;8.42
28305;BMP280;15569;42.652;23.040;2023-03-04T04:42:48;92814.13;;;8.22
28305;BMP280;15569;42.652;23.040;2023-03-04T04:45:13;92812.72;;;8.32
28305;BMP280;15569;42.652;23.040;2023-03-04T04:47:38;92804.75;;;8.11
28305;BMP280;15569;42.652;23.040;2023-03-04T04:50:04;92810.72;;;8.09
28305;BMP280;15569;42.652;23.040;2023-03-04T04:52:30;92798.88;;;7.91
28305;BMP280;15569;42.652;23.040;2023-03-04T04:54:55;92808.28;;;8.14
28305;BMP280;15569;42.652;23.040;2023-03-04T04:57:21;92828.13;;;8.18
28305;BMP280;15569;42.652;23.040;2023-03-04T04:59:46;92825.41;;;8.30
28305;BMP280;15569;42.652;23.040;2023-03-04T05:02:12;92824.84;;;8.31
28305;BMP280;15569;42.652;23.040;2023-03-04T05:04:38;92820.16;;;8.20
28305;BMP280;15569;42.652;23.040;2023-03-04T05:07:03;92818.50;;;8.15
28305;BMP280;15569;42.652;23.040;2023-03-04T05:09:29;92825.69;;;8.22
28305;BMP280;15569;42.652;23.040;2023-03-04T05:11:54;92836.25;;;8.18
28305;BMP280;15569;42.652;23.040;2023-03-04T05:14:20;92836.06;;;8.14
28305;BMP280;15569;42.652;23.040;2023-03-04T05:16:46;92825.22;;;8.26
28305;BMP280;15569;42.652;23.040;2023-03-04T05:19:12;92818.63;;;8.17
28305;BMP280;15569;42.652;23.040;2023-03-04T05:21:37;92841.34;;;8.24
28305;BMP280;15569;42.652;23.040;2023-03-04T05:24:03;92834.72;;;8.38
28305;BMP280;15569;42.652;23.040;2023-03-04T05:26:28;92834.16;;;8.28
28305;BMP280;15569;42.652;23.040;2023-03-04T05:28:53;92839.78;;;8.55
28305;BMP280;15569;42.652;23.040;2023-03-04T05:31:19;92848.38;;;8.40
28305;BMP280;15569;42.652;23.040;2023-03-04T05:33:44;92841.41;;;8.49
28305;BMP280;15569;42.652;23.040;2023-03-04T05:36:10;92851.06;;;8.63
28305;BMP280;15569;42.652;23.040;2023-03-04T05:38:35;92839.91;;;8.46
28305;BMP280;15569;42.652;23.040;2023-03-04T05:41:03;92847.53;;;8.86
28305;BMP280;15569;42.652;23.040;2023-03-04T05:43:29;92851.63;;;8.73
28305;BMP280;15569;42.652;23.040;2023-03-04T05:45:55;92856.69;;;8.67
28305;BMP280;15569;42.652;23.040;2023-03-04T05:48:20;92846.78;;;8.72
28305;BMP280;15569;42.652;23.040;2023-03-04T05:50:45;92849.28;;;8.56
28305;BMP280;15569;42.652;23.040;2023-03-04T05:53:11;92837.13;;;8.69
28305;BMP280;15569;42.652;23.040;2023-03-04T05:55:37;92840.19;;;8.75
28305;BMP280;15569;42.652;23.040;2023-03-04T05:58:02;92840.41;;;8.79
28305;BMP280;15569;42.652;23.040;2023-03-04T06:00:28;92848.25;;;8.87
28305;BMP280;15569;42.652;23.040;2023-03-04T06:02:53;92845.91;;;8.93
28305;BMP280;15569;42.652;23.040;2023-03-04T06:05:19;92861.97;;;9.14
28305;BMP280;15569;42.652;23.040;2023-03-04T06:07:44;92865.31;;;9.26
28305;BMP280;15569;42.652;23.040;2023-03-04T06:10:13;92865.00;;;9.45
28305;BMP280;15569;42.652;23.040;2023-03-04T06:12:39;92854.19;;;9.59
28305;BMP280;15569;42.652;23.040;2023-03-04T06:15:04;92870.94;;;9.80
28305;BMP280;15569;42.652;23.040;2023-03-04T06:17:31;92866.78;;;9.79
28305;BMP280;15569;42.652;23.040;2023-03-04T06:19:56;92867.56;;;9.93
28305;BMP280;15569;42.652;23.040;2023-03-04T06:22:22;92850.53;;;10.06
28305;BMP280;15569;42.652;23.040;2023-03-04T06:24:47;92858.38;;;10.00
28305;BMP280;15569;42.652;23.040;2023-03-04T06:27:13;92863.19;;;9.88
28305;BMP280;15569;42.652;23.040;2023-03-04T06:29:40;92857.47;;;9.96
28305;BMP280;15569;42.652;23.040;2023-03-04T06:32:06;92857.69;;;10.13
28305;BMP280;15569;42.652;23.040;2023-03-04T06:34:31;92863.75;;;10.25
28305;BMP280;15569;42.652;23.040;2023-03-04T06:36:58;92860.19;;;10.37
28305;BMP280;15569;42.652;23.040;2023-03-04T06:39:23;92872.81;;;10.44
28305;BMP280;15569;42.652;23.040;2023-03-04T06:41:49;92876.50;;;10.37
28305;BMP280;15569;42.652;23.040;2023-03-04T06:44:14;92873.09;;;10.50
28305;BMP280;15569;42.652;23.040;2023-03-04T06:46:40;92879.31;;;10.66
28305;BMP280;15569;42.652;23.040;2023-03-04T06:49:05;92876.19;;;10.58
28305;BMP280;15569;42.652;23.040;2023-03-04T06:51:30;92886.25;;;10.42
28305;BMP280;15569;42.652;23.040;2023-03-04T06:53:56;92885.56;;;10.55
28305;BMP280;15569;42.652;23.040;2023-03-04T06:56:21;92886.53;;;10.75
28305;BMP280;15569;42.652;23.040;2023-03-04T06:58:46;92875.81;;;10.22
28305;BMP280;15569;42.652;23.040;2023-03-04T07:01:20;92883.75;;;10.18
28305;BMP280;15569;42.652;23.040;2023-03-04T07:03:46;92878.22;;;10.16
28305;BMP280;15569;42.652;23.040;2023-03-04T07:06:14;92878.09;;;10.28
28305;BMP280;15569;42.652;23.040;2023-03-04T07:08:40;92875.19;;;10.24
28305;BMP280;15569;42.652;23.040;2023-03-04T07:11:06;92880.34;;;10.32
28305;BMP280;15569;42.652;23.040;2023-03-04T07:13:32;92878.28;;;9.91
28305;BMP280;15569;42.652;23.040;2023-03-04T07:15:59;92890.19;;;10.11
28305;BMP280;15569;42.652;23.040;2023-03-04T07:18:25;92889.28;;;10.07
28305;BMP280;15569;42.652;23.040;2023-03-04T07:20:51;92886.19;;;9.74
28305;BMP280;15569;42.652;23.040;2023-03-04T07:23:17;92893.75;;;9.75
28305;BMP280;15569;42.652;23.040;2023-03-04T07:25:43;92884.81;;;9.86
28305;BMP280;15569;42.652;23.040;2023-03-04T07:28:08;92882.78;;;9.87
28305;BMP280;15569;42.652;23.040;2023-03-04T07:30:34;92885.13;;;10.06
28305;BMP280;15569;42.652;23.040;2023-03-04T07:32:59;92894.38;;;9.87
28305;BMP280;15569;42.652;23.040;2023-03-04T07:35:25;92878.41;;;10.20
28305;BMP280;15569;42.652;23.040;2023-03-04T07:37:50;92896.34;;;10.25
28305;BMP280;15569;42.652;23.040;2023-03-04T07:40:15;92885.66;;;10.29
28305;BMP280;15569;42.652;23.040;2023-03-04T07:42:41;92893.09;;;10.56
28305;BMP280;15569;42.652;23.040;2023-03-04T07:45:07;92875.19;;;10.65
28305;BMP280;15569;42.652;23.040;2023-03-04T07:47:34;92871.16;;;10.66
28305;BMP280;15569;42.652;23.040;2023-03-04T07:49:59;92881.28;;;10.79
28305;BMP280;15569;42.652;23.040;2023-03-04T07:52:25;92877.09;;;10.49
28305;BMP280;15569;42.652;23.040;2023-03-04T07:54:50;92890.16;;;10.79
28305;BMP280;15569;42.652;23.040;2023-03-04T07:57:15;92876.84;;;10.99
28305;BMP280;15569;42.652;23.040;2023-03-04T07:59:41;92882.63;;;11.07
28305;BMP280;15569;42.652;23.040;2023-03-04T08:02:06;92853.78;;;10.86
28305;BMP280;15569;42.652;23.040;2023-03-04T08:04:32;92878.09;;;11.12
28305;BMP280;15569;42.652;23.040;2023-03-04T08:06:57;92870.94;;;11.18
28305;BMP280;15569;42.652;23.040;2023-03-04T08:09:23;92872.53;;;11.23
28305;BMP280;15569;42.652;23.040;2023-03-04T08:11:48;92872.03;;;11.42
28305;BMP280;15569;42.652;23.040;2023-03-04T08:14:14;92875.56;;;11.60
28305;BMP280;15569;42.652;23.040;2023-03-04T08:16:40;92868.22;;;11.34
28305;BMP280;15569;42.652;23.040;2023-03-04T08:19:06;92874.91;;;11.46
28305;BMP280;15569;42.652;23.040;2023-03-04T08:21:32;92862.94;;;11.67
28305;BMP280;15569;42.652;23.040;2023-03-04T09:18:03;92846.81;;;13.04
28305;BMP280;15569;42.652;23.040;2023-03-04T09:20:31;92842.19;;;12.73
28305;BMP280;15569;42.652;23.040;2023-03-04T09:22:56;92839.31;;;12.69
28305;BMP280;15569;42.652;23.040;2023-03-04T09:25:22;92852.34;;;12.88
28305;BMP280;15569;42.652;23.040;2023-03-04T09:27:47;92834.09;;;12.75
28305;BMP280;15569;42.652;23.040;2023-03-04T09:30:13;92840.34;;;12.78
28305;BMP280;15569;42.652;23.040;2023-03-04T09:32:38;92838.00;;;12.70
28305;BMP280;15569;42.652;23.040;2023-03-04T09:35:05;92830.66;;;12.57
28305;BMP280;15569;42.652;23.040;2023-03-04T09:37:30;92843.53;;;12.90
28305;BMP280;15569;42.652;23.040;2023-03-04T09:39:56;92845.66;;;13.09
28305;BMP280;15569;42.652;23.040;2023-03-04T09:42:34;92815.41;;;12.85
28305;BMP280;15569;42.652;23.040;2023-03-04T09:45:02;92834.25;;;13.14
28305;BMP280;15569;42.652;23.040;2023-03-04T09:47:33;92832.28;;;13.34
28305;BMP280;15569;42.652;23.040;2023-03-04T09:50:04;92835.19;;;13.21
28305;BMP280;15569;42.652;23.040;2023-03-04T09:58:27;92838.56;;;12.18
28305;BMP280;15569;42.652;23.040;2023-03-04T10:01:16;92826.91;;;12.66
28305;BMP280;15569;42.652;23.040;2023-03-04T10:03:45;92821.16;;;12.93
28305;BMP280;15569;42.652;23.040;2023-03-04T10:06:19;92814.53;;;13.16
28305;BMP280;15569;42.652;23.040;2023-03-04T10:11:33;92812.75;;;12.70
28305;BMP280;15569;42.652;23.040;2023-03-04T10:14:14;92815.00;;;12.75
28305;BMP280;15569;42.652;23.040;2023-03-04T10:16:48;92812.91;;;12.91
28305;BMP280;15569;42.652;23.040;2023-03-04T10:21:56;92815.75;;;12.60
28305;BMP280;15569;42.652;23.040;2023-03-04T10:24:26;92803.63;;;12.63
28305;BMP280;15569;42.652;23.040;2023-03-04T10:26:56;92806.88;;;11.46
28305;BMP280;15569;42.652;23.040;2023-03-04T10:29:23;92802.31;;;11.35
28305;BMP280;15569;42.652;23.040;2023-03-04T10:31:49;92801.91;;;11.56
28305;BMP280;15569;42.652;23.040;2023-03-04T10:34:16;92804.50;;;11.70
28305;BMP280;15569;42.652;23.040;2023-03-04T10:39:28;92792.63;;;11.17
28305;BMP280;15569;42.652;23.040;2023-03-04T10:42:02;92796.50;;;11.90
28305;BMP280;15569;42.652;23.040;2023-03-04T10:44:28;92788.00;;;12.30
28305;BMP280;15569;42.652;23.040;2023-03-04T10:46:56;92784.13;;;12.71
28305;BMP280;15569;42.652;23.040;2023-03-04T10:49:22;92776.81;;;12.93
28305;BMP280;15569;42.652;23.040;2023-03-04T10:52:17;92777.88;;;13.21
28305;BMP280;15569;42.652;23.040;2023-03-04T10:57:05;92771.41;;;12.95
28305;BMP280;15569;42.652;23.040;2023-03-04T11:02:35;92763.63;;;13.42
28305;BMP280;15569;42.652;23.040;2023-03-04T11:07:40;92737.06;;;13.25
28305;BMP280;15569;42.652;23.040;2023-03-04T11:10:16;92742.50;;;13.25
28305;BMP280;15569;42.652;23.040;2023-03-04T11:12:48;92737.34;;;13.33
28305;BMP280;15569;42.652;23.040;2023-03-04T11:15:21;92742.63;;;13.09
28305;BMP280;15569;42.652;23.040;2023-03-04T11:20:29;92733.97;;;12.78
28305;BMP280;15569;42.652;23.040;2023-03-04T11:22:59;92725.66;;;13.11
28305;BMP280;15569;42.652;23.040;2023-03-04T11:27:56;92714.72;;;13.70
28305;BMP280;15569;42.652;23.040;2023-03-04T11:35:55;92707.22;;;12.74
28305;BMP280;15569;42.652;23.040;2023-03-04T11:38:32;92708.34;;;12.67
28305;BMP280;15569;42.652;23.040;2023-03-04T11:41:13;92693.34;;;11.98
28305;BMP280;15569;42.652;23.040;2023-03-04T11:43:42;92705.84;;;12.38
28305;BMP280;15569;42.652;23.040;2023-03-04T11:54:39;92689.22;;;13.41
28305;BMP280;15569;42.652;23.040;2023-03-04T12:08:50;92687.91;;;12.15
28305;BMP280;15569;42.652;23.040;2023-03-04T12:11:37;92682.25;;;11.27
28305;BMP280;15569;42.652;23.040;2023-03-04T12:27:57;92663.91;;;12.47
28305;BMP280;15569;42.652;23.040;2023-03-04T12:30:37;92675.75;;;12.01
28305;BMP280;15569;42.652;23.040;2023-03-04T12:41:26;92661.22;;;11.45
28305;BMP280;15569;42.652;23.040;2023-03-04T12:44:17;92647.78;;;11.82
28305;BMP280;15569;42.652;23.040;2023-03-04T12:47:09;92636.13;;;11.80
28305;BMP280;15569;42.652;23.040;2023-03-04T12:55:14;92650.53;;;12.35
28305;BMP280;15569;42.652;23.040;2023-03-04T12:57:41;92643.78;;;12.01
28305;BMP280;15569;42.652;23.040;2023-03-04T13:03:53;92635.50;;;10.99
28305;BMP280;15569;42.652;23.040;2023-03-04T13:07:06;92619.16;;;10.99
28305;BMP280;15569;42.652;23.040;2023-03-04T13:16:49;92636.91;;;11.34
28305;BMP280;15569;42.652;23.040;2023-03-04T13:24:54;92634.16;;;10.85
28305;BMP280;15569;42.652;23.040;2023-03-04T13:28:05;92632.19;;;10.56
28305;BMP280;15569;42.652;23.040;2023-03-04T13:43:53;92621.75;;;10.51
28305;BMP280;15569;42.652;23.040;2023-03-04T13:53:45;92613.53;;;9.90
28305;BMP280;15569;42.652;23.040;2023-03-04T13:58:52;92611.19;;;9.98
28305;BMP280;15569;42.652;23.040;2023-03-04T14:01:30;92603.03;;;9.55
28305;BMP280;15569;42.652;23.040;2023-03-04T14:03:57;92599.75;;;9.57
28305;BMP280;15569;42.652;23.040;2023-03-04T14:06:28;92597.22;;;9.34
28305;BMP280;15569;42.652;23.040;2023-03-04T14:08:54;92596.31;;;9.57
28305;BMP280;15569;42.652;23.040;2023-03-04T14:11:27;92599.63;;;9.69
28305;BMP280;15569;42.652;23.040;2023-03-04T14:13:55;92580.03;;;9.57
28305;BMP280;15569;42.652;23.040;2023-03-04T14:16:26;92597.03;;;9.57
28305;BMP280;15569;42.652;23.040;2023-03-04T14:19:01;92588.72;;;9.39
28305;BMP280;15569;42.652;23.040;2023-03-04T14:21:27;92593.19;;;9.62
28305;BMP280;15569;42.652;23.040;2023-03-04T14:24:17;92591.09;;;9.47
28305;BMP280;15569;42.652;23.040;2023-03-04T14:26:44;92591.91;;;9.22
28305;BMP280;15569;42.652;23.040;2023-03-04T14:29:27;92587.00;;;9.19
28305;BMP280;15569;42.652;23.040;2023-03-04T14:31:54;92573.53;;;9.21
28305;BMP280;15569;42.652;23.040;2023-03-04T14:34:38;92585.50;;;9.16
28305;BMP280;15569;42.652;23.040;2023-03-04T14:37:19;92578.94;;;9.34
28305;BMP280;15569;42.652;23.040;2023-03-04T14:39:49;92582.59;;;9.12
28305;BMP280;15569;42.652;23.040;2023-03-04T14:42:18;92581.56;;;8.92
28305;BMP280;15569;42.652;23.040;2023-03-04T14:44:48;92583.69;;;8.93
28305;BMP280;15569;42.652;23.040;2023-03-04T14:47:18;92571.03;;;8.98
28305;BMP280;15569;42.652;23.040;2023-03-04T14:49:45;92566.38;;;8.87
28305;BMP280;15569;42.652;23.040;2023-03-04T14:55:21;92575.44;;;9.05
28305;BMP280;15569;42.652;23.040;2023-03-04T14:57:48;92575.34;;;9.16
28305;BMP280;15569;42.652;23.040;2023-03-04T15:02:47;92540.88;;;8.78
28305;BMP280;15569;42.652;23.040;2023-03-04T15:05:19;92564.59;;;9.05
28305;BMP280;15569;42.652;23.040;2023-03-04T15:07:54;92559.47;;;8.83
28305;BMP280;15569;42.652;23.040;2023-03-04T15:10:27;92559.78;;;8.90
28305;BMP280;15569;42.652;23.040;2023-03-04T15:12:56;92555.47;;;9.12
28305;BMP280;15569;42.652;23.040;2023-03-04T15:15:42;92539.66;;;9.35
28305;BMP280;15569;42.652;23.040;2023-03-04T15:18:16;92557.06;;;9.17
28305;BMP280;15569;42.652;23.040;2023-03-04T15:21:00;92544.41;;;9.08
28305;BMP280;15569;42.652;23.040;2023-03-04T15:23:28;92548.75;;;9.13
28305;BMP280;15569;42.652;23.040;2023-03-04T15:26:02;92540.78;;;9.17
28305;BMP280;15569;42.652;23.040;2023-03-04T15:28:36;92551.69;;;9.46
28305;BMP280;15569;42.652;23.040;2023-03-04T15:31:05;92534.13;;;9.47
28305;BMP280;15569;42.652;23.040;2023-03-04T15:33:31;92545.38;;;10.13
28305;BMP280;15569;42.652;23.040;2023-03-04T15:36:01;92535.06;;;9.96
28305;BMP280;15569;42.652;23.040;2023-03-04T15:38:26;92544.97;;;9.90
28305;BMP280;15569;42.652;23.040;2023-03-04T15:40:53;92510.63;;;9.81
28305;BMP280;15569;42.652;23.040;2023-03-04T15:43:21;92521.50;;;9.67
28305;BMP280;15569;42.652;23.040;2023-03-04T15:45:47;92528.28;;;9.82
28305;BMP280;15569;42.652;23.040;2023-03-04T15:48:15;92534.28;;;9.94
28305;BMP280;15569;42.652;23.040;2023-03-04T15:50:53;92520.91;;;10.13
28305;BMP280;15569;42.652;23.040;2023-03-04T15:53:39;92519.09;;;10.18
28305;BMP280;15569;42.652;23.040;2023-03-04T15:56:17;92515.47;;;9.98
28305;BMP280;15569;42.652;23.040;2023-03-04T15:58:52;92517.09;;;10.18
28305;BMP280;15569;42.652;23.040;2023-03-04T16:01:18;92508.84;;;10.16
28305;BMP280;15569;42.652;23.040;2023-03-04T16:03:43;92519.25;;;10.22
28305;BMP280;15569;42.652;23.040;2023-03-04T16:06:13;92521.28;;;10.21
28305;BMP280;15569;42.652;23.040;2023-03-04T16:08:39;92524.28;;;10.27
28305;BMP280;15569;42.652;23.040;2023-03-04T16:15:56;92528.66;;;10.66
28305;BMP280;15569;42.652;23.040;2023-03-04T16:18:21;92527.94;;;10.65
28305;BMP280;15569;42.652;23.040;2023-03-04T16:20:48;92523.81;;;10.80
28305;BMP280;15569;42.652;23.040;2023-03-04T16:23:22;92524.88;;;10.88
28305;BMP280;15569;42.652;23.040;2023-03-04T16:25:50;92525.72;;;10.93
28305;BMP280;15569;42.652;23.040;2023-03-04T16:28:16;92525.72;;;10.93
28305;BMP280;15569;42.652;23.040;2023-03-04T16:30:41;92530.38;;;11.06
28305;BMP280;15569;42.652;23.040;2023-03-04T16:33:07;92526.41;;;11.09
28305;BMP280;15569;42.652;23.040;2023-03-04T16:35:35;92537.13;;;11.05
28305;BMP280;15569;42.652;23.040;2023-03-04T16:38:00;92532.53;;;11.09
28305;BMP280;15569;42.652;23.040;2023-03-04T16:40:28;92532.34;;;11.21
28305;BMP280;15569;42.652;23.040;2023-03-04T16:42:54;92536.94;;;11.34
28305;BMP280;15569;42.652;23.040;2023-03-04T16:45:23;92508.06;;;11.09
28305;BMP280;15569;42.652;23.040;2023-03-04T16:47:49;92532.13;;;11.33
28305;BMP280;15569;42.652;23.040;2023-03-04T16:50:18;92522.13;;;11.37
28305;BMP280;15569;42.652;23.040;2023-03-04T16:52:46;92523.59;;;11.40
28305;BMP280;15569;42.652;23.040;2023-03-04T16:55:18;92530.06;;;11.49
28305;BMP280;15569;42.652;23.040;2023-03-04T16:57:44;92523.06;;;11.44
28305;BMP280;15569;42.652;23.040;2023-03-04T17:00:10;92525.41;;;11.51
28305;BMP280;15569;42.652;23.040;2023-03-04T17:02:36;92534.91;;;11.50
28305;BMP280;15569;42.652;23.040;2023-03-04T17:05:01;92519.88;;;11.49
28305;BMP280;15569;42.652;23.040;2023-03-04T17:07:28;92515.97;;;11.37
28305;BMP280;15569;42.652;23.040;2023-03-04T17:09:53;92523.13;;;11.46
28305;BMP280;15569;42.652;23.040;2023-03-04T17:12:19;92525.41;;;11.51
28305;BMP280;15569;42.652;23.040;2023-03-04T17:14:44;92514.28;;;11.45
28305;BMP280;15569;42.652;23.040;2023-03-04T17:17:10;92523.81;;;11.46
28305;BMP280;15569;42.652;23.040;2023-03-04T17:19:35;92521.38;;;11.52
28305;BMP280;15569;42.652;23.040;2023-03-04T17:22:01;92526.94;;;11.39
28305;BMP280;15569;42.652;23.040;2023-03-04T17:24:27;92530.34;;;11.39
28305;BMP280;15569;42.652;23.040;2023-03-04T17:26:53;92524.00;;;11.17
28305;BMP280;15569;42.652;23.040;2023-03-04T17:29:19;92533.22;;;11.10
28305;BMP280;15569;42.652;23.040;2023-03-04T17:31:44;92534.97;;;11.19
28305;BMP280;15569;42.652;23.040;2023-03-04T17:34:10;92509.94;;;10.89
28305;BMP280;15569;42.652;23.040;2023-03-04T17:36:35;92531.13;;;11.08
28305;BMP280;15569;42.652;23.040;2023-03-04T17:39:02;92537.44;;;11.13
28305;BMP280;15569;42.652;23.040;2023-03-04T17:41:28;92546.00;;;11.05